createdAt,value
2022-10-06T00:00:38.585Z,84.44
2022-10-06T00:03:05.305Z,84.29
2022-10-06T00:05:32.110Z,84.14
2022-10-06T00:07:59.902Z,83.97
2022-10-06T00:10:26.582Z,84.17
2022-10-06T00:12:53.426Z,84.23
2022-10-06T00:15:26.184Z,83.96
2022-10-06T00:17:53.101Z,84.34
2022-10-06T00:20:20.009Z,84.01
2022-10-06T00:22:48.611Z,84.06
2022-10-06T00:25:18.751Z,84.15
2022-10-06T00:27:47.812Z,84.27
2022-10-06T00:30:24.535Z,84.29
2022-10-06T00:33:00.752Z,83.71
2022-10-06T00:35:33.507Z,83.87
2022-10-06T00:38:00.978Z,83.74
2022-10-06T00:40:28.166Z,83.81
2022-10-06T00:43:02.847Z,83.92
2022-10-06T00:45:34.524Z,84.61
2022-10-06T00:48:08.015Z,84.15
2022-10-06T00:50:35.682Z,84.11
2022-10-06T00:53:03.006Z,84.24
2022-10-06T00:55:31.004Z,84.27
2022-10-06T00:57:59.540Z,83.90
2022-10-06T01:00:26.692Z,84.10
2022-10-06T01:03:04.920Z,83.79
2022-10-06T01:05:35.301Z,83.56
2022-10-06T01:08:02.121Z,84.19
2022-10-06T01:10:28.793Z,84.32
2022-10-06T01:12:57.124Z,84.04
2022-10-06T01:15:25.388Z,83.53
2022-10-06T01:17:55.707Z,83.51
2022-10-06T01:20:23.709Z,83.40
2022-10-06T01:23:02.337Z,82.39
2022-10-06T01:25:29.226Z,83.72
2022-10-06T01:27:57.164Z,83.52
2022-10-06T01:30:32.738Z,83.25
2022-10-06T01:32:59.795Z,83.79
2022-10-06T01:35:27.139Z,83.78
2022-10-06T01:37:54.957Z,83.73
2022-10-06T01:40:21.608Z,83.44
2022-10-06T01:42:48.653Z,83.37
2022-10-06T01:45:15.706Z,83.29
2022-10-06T01:47:42.353Z,82.96
2022-10-06T01:50:10.126Z,83.42
2022-10-06T01:52:36.823Z,83.43
2022-10-06T01:55:04.279Z,83.95
2022-10-06T01:57:31.542Z,83.95
2022-10-06T01:59:58.342Z,84.07
2022-10-06T02:02:25.045Z,83.93
2022-10-06T02:04:52.314Z,83.87
2022-10-06T02:07:19.486Z,83.32
2022-10-06T02:09:46.900Z,83.84
2022-10-06T02:12:14.697Z,83.92
2022-10-06T02:14:41.975Z,84.01
2022-10-06T02:17:10.023Z,83.89
2022-10-06T02:19:36.787Z,84.46
2022-10-06T02:22:03.761Z,84.82
2022-10-06T02:24:30.452Z,84.62
2022-10-06T02:26:57.204Z,84.19
2022-10-06T02:29:24.186Z,84.13
2022-10-06T02:31:52.163Z,84.34
2022-10-06T02:34:18.982Z,84.24
2022-10-06T02:36:45.644Z,84.36
2022-10-06T02:39:12.699Z,84.65
2022-10-06T02:41:40.381Z,84.80
2022-10-06T02:44:07.134Z,84.52
2022-10-06T02:46:34.225Z,85.10
2022-10-06T02:49:01.778Z,85.25
2022-10-06T02:51:29.789Z,85.40
2022-10-06T02:53:56.499Z,85.31
2022-10-06T02:56:24.904Z,85.04
2022-10-06T02:58:53.261Z,85.17
2022-10-06T03:01:29.955Z,85.63
2022-10-06T03:04:06.146Z,86.09
2022-10-06T03:06:34.113Z,85.79
2022-10-06T03:09:16.262Z,85.71
2022-10-06T03:11:43.900Z,85.99
2022-10-06T03:14:21.843Z,86.07
2022-10-06T03:16:51.842Z,85.73
2022-10-06T03:19:23.658Z,86.22
2022-10-06T03:21:50.520Z,85.73
2022-10-06T03:24:17.516Z,86.08
2022-10-06T03:26:48.651Z,86.24
2022-10-06T03:29:17.156Z,86.02
2022-10-06T03:31:48.898Z,86.15
2022-10-06T03:34:15.754Z,85.38
2022-10-06T03:36:44.433Z,85.14
2022-10-06T03:39:11.814Z,85.63
2022-10-06T03:41:39.938Z,85.23
2022-10-06T03:44:08.619Z,85.98
2022-10-06T03:46:37.861Z,85.78
2022-10-06T03:49:07.154Z,86.28
2022-10-06T03:51:38.861Z,85.85
2022-10-06T03:54:10.599Z,86.42
2022-10-06T03:56:40.871Z,86.02
2022-10-06T03:59:12.182Z,86.00
2022-10-06T04:01:42.923Z,86.24
2022-10-06T04:04:12.787Z,86.06
2022-10-06T04:06:42.856Z,85.79
2022-10-06T04:09:15.515Z,86.12
2022-10-06T04:11:43.932Z,86.42
2022-10-06T04:14:13.762Z,86.21
2022-10-06T04:16:43.048Z,86.76
2022-10-06T04:19:12.030Z,86.82
2022-10-06T04:21:43.981Z,87.36
2022-10-06T04:24:13.949Z,87.26
2022-10-06T04:26:46.553Z,86.53
2022-10-06T04:29:14.033Z,86.74
2022-10-06T04:31:42.683Z,86.60
2022-10-06T04:34:16.519Z,87.49
2022-10-06T04:36:44.694Z,88.13
2022-10-06T04:39:14.921Z,87.45
2022-10-06T04:41:47.688Z,87.46
2022-10-06T04:44:19.252Z,87.41
2022-10-06T04:46:46.617Z,87.85
2022-10-06T04:49:19.545Z,88.01
2022-10-06T04:51:48.854Z,88.63
2022-10-06T04:54:16.117Z,88.92
2022-10-06T04:56:44.190Z,88.54
2022-10-06T04:59:11.116Z,87.97
2022-10-06T05:01:40.492Z,87.97
2022-10-06T05:04:10.679Z,88.43
2022-10-06T05:06:39.804Z,88.64
2022-10-06T05:09:09.387Z,88.48
2022-10-06T05:11:38.028Z,88.43
2022-10-06T05:14:07.845Z,88.37
2022-10-06T05:16:38.852Z,88.55
2022-10-06T05:19:08.098Z,88.66
2022-10-06T05:24:03.917Z,88.71
2022-10-06T05:26:32.021Z,88.79
2022-10-06T05:29:00.549Z,88.98
2022-10-06T05:31:32.901Z,88.80
2022-10-06T05:34:02.828Z,88.96
2022-10-06T05:36:31.391Z,88.99
2022-10-06T05:38:58.580Z,88.82
2022-10-06T05:41:31.941Z,89.01
2022-10-06T05:44:01.524Z,89.21
2022-10-06T05:46:31.052Z,89.39
2022-10-06T05:49:00.437Z,89.54
2022-10-06T05:51:32.281Z,88.96
2022-10-06T05:54:02.193Z,89.29
2022-10-06T05:56:29.769Z,89.40
2022-10-06T05:58:58.138Z,89.62
2022-10-06T06:01:31.575Z,89.87
2022-10-06T06:04:01.204Z,90.00
2022-10-06T06:06:30.973Z,89.90
2022-10-06T06:09:03.384Z,90.14
2022-10-06T06:11:31.636Z,90.27
2022-10-06T06:14:00.379Z,90.34
2022-10-06T06:16:28.718Z,90.34
2022-10-06T06:18:55.780Z,90.46
2022-10-06T06:21:22.856Z,90.59
2022-10-06T06:23:50.087Z,90.63
2022-10-06T06:26:29.231Z,90.60
2022-10-06T06:29:02.751Z,90.69
2022-10-06T06:31:32.346Z,90.68
2022-10-06T06:34:00.328Z,90.70
2022-10-06T06:36:35.507Z,91.00
2022-10-06T06:39:08.676Z,91.13
2022-10-06T06:41:38.094Z,91.21
2022-10-06T06:44:13.938Z,91.38
2022-10-06T06:46:50.619Z,90.96
2022-10-06T06:49:20.621Z,91.50
2022-10-06T06:51:53.796Z,93.07
2022-10-06T06:54:23.061Z,91.76
2022-10-06T06:56:56.513Z,91.61
2022-10-06T06:59:23.522Z,91.48
2022-10-06T07:01:53.178Z,90.48
2022-10-06T07:04:21.942Z,90.60
2022-10-06T07:06:58.548Z,90.67
2022-10-06T07:09:30.488Z,90.84
2022-10-06T07:12:05.288Z,89.99
2022-10-06T07:14:32.288Z,89.79
2022-10-06T07:17:32.366Z,89.90
2022-10-06T07:20:17.674Z,89.77
2022-10-06T07:23:03.019Z,89.64
2022-10-06T07:25:29.862Z,89.51
2022-10-06T07:28:02.483Z,89.12
2022-10-06T07:30:40.677Z,88.36
2022-10-06T07:33:14.590Z,88.36
2022-10-06T07:35:42.358Z,88.20
2022-10-06T07:38:10.292Z,88.37
2022-10-06T07:40:46.172Z,88.41
2022-10-06T07:43:22.974Z,88.38
2022-10-06T07:45:51.203Z,87.82
2022-10-06T07:48:25.704Z,87.64
2022-10-06T07:50:58.579Z,87.15
2022-10-06T07:53:29.874Z,86.99
2022-10-06T07:56:05.362Z,86.20
2022-10-06T07:58:37.299Z,86.01
2022-10-06T08:01:06.606Z,85.88
2022-10-06T08:03:33.530Z,85.70
2022-10-06T08:06:01.772Z,85.26
2022-10-06T08:08:32.986Z,85.25
2022-10-06T08:11:01.537Z,85.23
2022-10-06T08:13:28.674Z,82.76
2022-10-06T08:15:56.489Z,82.03
2022-10-06T08:18:45.406Z,82.17
2022-10-06T08:21:17.397Z,80.96
2022-10-06T08:23:45.571Z,80.93
2022-10-06T08:26:13.926Z,79.72
2022-10-06T08:28:44.583Z,79.31
2022-10-06T08:31:12.342Z,80.44
2022-10-06T08:33:39.962Z,80.14
2022-10-06T08:36:14.685Z,80.56
2022-10-06T08:38:41.520Z,79.44
2022-10-06T08:41:22.021Z,78.01
2022-10-06T08:44:02.591Z,78.85
2022-10-06T08:46:37.275Z,78.52
2022-10-06T08:49:05.650Z,77.42
2022-10-06T08:52:04.953Z,76.67
2022-10-06T08:54:49.901Z,75.89
2022-10-06T08:57:24.768Z,75.24
2022-10-06T08:59:53.432Z,75.27
2022-10-06T09:02:28.041Z,75.90
2022-10-06T09:04:57.973Z,75.56
2022-10-06T09:07:48.383Z,74.89
2022-10-06T09:10:21.190Z,73.98
2022-10-06T09:13:08.831Z,72.74
2022-10-06T09:15:50.841Z,73.66
2022-10-06T09:18:22.109Z,70.83
2022-10-06T09:21:01.462Z,72.81
2022-10-06T09:23:49.959Z,73.87
2022-10-06T09:26:24.491Z,73.14
2022-10-06T09:28:51.959Z,73.43
2022-10-06T09:31:27.469Z,73.48
2022-10-06T09:33:59.278Z,73.85
2022-10-06T09:36:26.223Z,73.87
2022-10-06T09:38:55.128Z,73.96
2022-10-06T09:41:40.911Z,71.32
2022-10-06T09:44:21.549Z,70.10
2022-10-06T09:46:48.293Z,70.55
2022-10-06T09:49:25.943Z,69.84
2022-10-06T09:52:13.448Z,69.67
2022-10-06T09:54:43.125Z,70.49
2022-10-06T09:57:15.028Z,70.13
2022-10-06T09:59:46.268Z,70.97
2022-10-06T10:02:29.197Z,67.67
2022-10-06T10:04:57.092Z,68.59
2022-10-06T10:07:26.054Z,69.00
2022-10-06T10:09:54.442Z,68.02
2022-10-06T10:12:25.290Z,68.29
2022-10-06T10:14:52.865Z,68.02
2022-10-06T10:17:32.341Z,67.23
2022-10-06T10:20:00.887Z,67.37
2022-10-06T10:22:40.166Z,66.86
2022-10-06T10:25:20.141Z,66.18
2022-10-06T10:27:54.600Z,67.03
2022-10-06T10:30:21.538Z,68.46
2022-10-06T10:32:51.205Z,67.79
2022-10-06T10:35:23.333Z,67.89
2022-10-06T10:37:52.006Z,68.11
2022-10-06T10:40:37.268Z,67.75
2022-10-06T10:43:19.556Z,66.93
2022-10-06T10:45:50.367Z,66.30
2022-10-06T10:48:22.853Z,67.36
2022-10-06T10:51:07.667Z,67.45
2022-10-06T10:53:43.279Z,67.90
2022-10-06T10:56:12.185Z,67.40
2022-10-06T10:58:40.586Z,68.34
2022-10-06T11:01:19.445Z,67.62
2022-10-06T11:03:56.435Z,66.59
2022-10-06T11:06:46.643Z,65.42
2022-10-06T11:09:23.217Z,65.00
2022-10-06T11:11:58.962Z,65.14
2022-10-06T11:14:35.782Z,66.03
2022-10-06T11:17:28.445Z,65.27
2022-10-06T11:20:08.621Z,65.61
2022-10-06T11:22:38.114Z,65.88
2022-10-06T11:25:20.958Z,66.24
2022-10-06T11:27:50.675Z,66.11
2022-10-06T11:30:19.604Z,64.84
2022-10-06T11:33:11.661Z,62.81
2022-10-06T11:35:41.127Z,63.21
2022-10-06T11:38:15.746Z,61.45
2022-10-06T11:41:09.738Z,61.51
2022-10-06T11:44:03.520Z,61.10
2022-10-06T11:46:35.769Z,62.87
2022-10-06T11:49:33.466Z,61.86
2022-10-06T11:52:08.191Z,60.74
2022-10-06T11:55:09.071Z,60.49
2022-10-06T11:58:12.689Z,60.25
2022-10-06T12:00:50.453Z,61.22
2022-10-06T12:03:29.491Z,60.03
2022-10-06T12:05:57.073Z,61.17
2022-10-06T12:08:38.216Z,60.61
2022-10-06T12:11:40.474Z,60.73
2022-10-06T12:17:14.062Z,60.63
2022-10-06T12:19:56.219Z,60.04
2022-10-06T12:22:31.184Z,59.96
2022-10-06T12:25:05.213Z,61.10
2022-10-06T12:27:38.031Z,61.52
2022-10-06T12:30:24.308Z,60.97
2022-10-06T12:32:54.903Z,60.70
2022-10-06T12:35:28.417Z,60.24
2022-10-06T12:37:58.186Z,60.65
2022-10-06T12:40:44.082Z,59.63
2022-10-06T12:43:20.317Z,60.13
2022-10-06T12:45:47.617Z,59.56
2022-10-06T12:48:24.621Z,57.97
2022-10-06T12:50:59.328Z,57.48
2022-10-06T12:53:33.921Z,58.34
2022-10-06T12:56:03.762Z,58.34
2022-10-06T12:58:33.288Z,58.11
2022-10-06T13:01:01.571Z,57.06
2022-10-06T13:03:28.982Z,56.89
2022-10-06T13:06:03.806Z,55.31
2022-10-06T13:08:32.619Z,57.52
2022-10-06T13:11:21.672Z,56.73
2022-10-06T13:13:53.041Z,56.93
2022-10-06T13:16:22.302Z,57.02
2022-10-06T13:18:49.541Z,57.15
2022-10-06T13:21:16.523Z,56.66
2022-10-06T13:23:45.667Z,56.11
2022-10-06T13:26:23.908Z,54.97
2022-10-06T13:28:52.458Z,55.38
2022-10-06T13:31:28.116Z,54.46
2022-10-06T13:34:11.461Z,56.24
2022-10-06T13:36:39.744Z,55.91
2022-10-06T13:39:15.193Z,54.96
2022-10-06T13:41:44.007Z,54.64
2022-10-06T13:44:22.505Z,55.76
2022-10-06T13:46:52.157Z,56.27
2022-10-06T13:49:45.537Z,53.50
2022-10-06T13:52:19.422Z,55.92
2022-10-06T13:54:50.880Z,55.93
2022-10-06T13:57:40.574Z,55.90
2022-10-06T14:00:16.314Z,55.61
2022-10-06T14:02:44.988Z,55.59
2022-10-06T14:05:26.791Z,55.53
2022-10-06T14:08:01.677Z,54.81
2022-10-06T14:10:39.898Z,55.98
2022-10-06T14:13:10.009Z,57.98
2022-10-06T14:15:53.065Z,58.97
2022-10-06T14:18:19.910Z,60.40
2022-10-06T14:20:48.590Z,59.43
2022-10-06T14:23:44.185Z,58.27
2022-10-06T14:26:13.240Z,59.42
2022-10-06T14:28:45.900Z,58.77
2022-10-06T14:31:14.619Z,57.80
2022-10-06T14:33:41.839Z,58.09
2022-10-06T14:36:16.119Z,59.72
2022-10-06T14:38:42.972Z,60.11
2022-10-06T14:41:09.681Z,60.67
2022-10-06T14:43:36.335Z,60.60
2022-10-06T14:46:06.223Z,61.12
2022-10-06T14:48:33.113Z,61.45
2022-10-06T14:51:03.118Z,61.25
2022-10-06T14:53:30.583Z,60.38
2022-10-06T14:56:02.457Z,60.93
2022-10-06T14:58:29.207Z,60.88
2022-10-06T15:00:55.841Z,61.10
2022-10-06T15:03:22.665Z,61.23
2022-10-06T15:06:07.957Z,61.20
2022-10-06T15:08:34.612Z,61.24
2022-10-06T15:11:01.238Z,61.40
2022-10-06T15:13:27.980Z,61.58
2022-10-06T15:15:58.740Z,62.13
2022-10-06T15:18:26.061Z,62.45
2022-10-06T15:20:52.826Z,62.61
2022-10-06T15:23:19.530Z,62.95
2022-10-06T15:26:11.339Z,63.90
2022-10-06T15:28:56.538Z,63.68
2022-10-06T15:31:24.263Z,64.14
2022-10-06T15:33:55.006Z,64.04
2022-10-06T15:36:24.130Z,63.68
2022-10-06T15:38:51.972Z,63.80
2022-10-06T15:41:19.276Z,63.68
2022-10-06T15:43:55.137Z,63.72
2022-10-06T15:46:21.869Z,64.01
2022-10-06T15:48:48.643Z,64.51
2022-10-06T15:51:15.431Z,64.20
2022-10-06T15:53:44.098Z,64.27
2022-10-06T15:56:11.223Z,64.40
2022-10-06T15:58:39.546Z,64.22
2022-10-06T16:01:10.432Z,64.30
2022-10-06T16:03:41.350Z,64.08
2022-10-06T16:06:08.662Z,64.54
2022-10-06T16:08:35.929Z,63.94
2022-10-06T16:11:03.051Z,64.21
2022-10-06T16:13:29.859Z,64.24
2022-10-06T16:15:57.412Z,63.33
2022-10-06T16:18:24.586Z,63.54
2022-10-06T16:20:55.007Z,62.85
2022-10-06T16:23:22.108Z,63.02
2022-10-06T16:25:49.494Z,63.56
2022-10-06T16:28:16.240Z,63.65
2022-10-06T16:30:43.033Z,63.83
2022-10-06T16:33:09.841Z,64.28
2022-10-06T16:35:36.602Z,64.69
2022-10-06T16:38:03.329Z,64.59
2022-10-06T16:40:29.998Z,64.34
2022-10-06T16:42:56.700Z,64.44
2022-10-06T16:45:23.333Z,64.32
2022-10-06T16:47:50.025Z,64.18
2022-10-06T16:50:16.703Z,64.37
2022-10-06T16:52:43.442Z,64.19
2022-10-06T16:55:10.222Z,63.92
2022-10-06T16:57:36.905Z,64.45
2022-10-06T17:00:05.791Z,63.63
2022-10-06T17:02:33.910Z,64.60
2022-10-06T17:05:00.710Z,66.06
2022-10-06T17:07:27.498Z,65.90
2022-10-06T17:10:18.599Z,65.64
2022-10-06T17:12:41.325Z,65.73
2022-10-06T17:15:08.582Z,65.44
2022-10-06T17:17:35.301Z,65.18
2022-10-06T17:20:02.205Z,64.71
2022-10-06T17:22:29.086Z,64.06
2022-10-06T17:24:56.036Z,64.34
2022-10-06T17:27:23.854Z,64.26
2022-10-06T17:29:50.910Z,64.70
2022-10-06T17:32:18.004Z,64.78
2022-10-06T17:34:45.631Z,64.90
2022-10-06T17:37:12.862Z,64.32
2022-10-06T17:39:41.562Z,64.86
2022-10-06T17:42:13.703Z,66.28
2022-10-06T17:44:40.393Z,66.92
2022-10-06T17:47:12.238Z,66.45
2022-10-06T17:49:40.054Z,66.07
2022-10-06T17:52:06.848Z,66.33
2022-10-06T17:54:34.425Z,66.24
2022-10-06T17:57:01.131Z,66.33
2022-10-06T17:59:30.443Z,66.34
2022-10-06T18:01:59.862Z,66.77
2022-10-06T18:04:27.121Z,66.89
2022-10-06T18:06:54.291Z,67.16
2022-10-06T18:09:21.835Z,67.39
2022-10-06T18:11:54.527Z,67.61
2022-10-06T18:14:23.375Z,67.91
2022-10-06T18:16:55.832Z,68.18
2022-10-06T18:19:25.958Z,69.59
2022-10-06T18:21:54.523Z,69.19
2022-10-06T18:24:23.667Z,68.83
2022-10-06T18:26:52.281Z,68.85
2022-10-06T18:29:21.960Z,68.92
2022-10-06T18:31:50.596Z,68.76
2022-10-06T18:36:10.547Z,69.14
2022-10-06T18:37:04.688Z,69.20
2022-10-06T18:39:32.042Z,68.69
2022-10-06T18:42:03.611Z,68.67
2022-10-06T18:44:49.137Z,69.21
2022-10-06T18:47:34.403Z,69.43
2022-10-06T18:50:01.247Z,69.46
2022-10-06T18:52:28.031Z,69.50
2022-10-06T18:54:54.702Z,69.29
2022-10-06T18:57:26.518Z,69.45
2022-10-06T18:59:54.392Z,69.69
2022-10-06T19:02:21.308Z,69.59
2022-10-06T19:04:48.468Z,69.52
2022-10-06T19:07:15.317Z,69.05
2022-10-06T19:09:46.455Z,69.60
2022-10-06T19:12:14.366Z,69.38
2022-10-06T19:14:47.454Z,69.31
2022-10-06T19:17:15.147Z,69.84
2022-10-06T19:19:44.389Z,69.89
2022-10-06T19:22:13.939Z,70.07
2022-10-06T19:24:43.155Z,70.40
2022-10-06T19:27:12.255Z,69.95
2022-10-06T19:29:45.984Z,70.10
2022-10-06T19:32:18.412Z,69.58
2022-10-06T19:34:45.478Z,69.00
2022-10-06T19:37:12.217Z,69.43
2022-10-06T19:39:42.755Z,69.11
2022-10-06T19:42:29.890Z,69.52
2022-10-06T19:44:56.622Z,69.77
2022-10-06T19:47:23.545Z,69.70
2022-10-06T19:49:50.500Z,69.95
2022-10-06T19:52:17.226Z,70.46
2022-10-06T19:54:44.067Z,70.44
2022-10-06T19:57:11.521Z,70.76
2022-10-06T19:59:38.300Z,70.54
2022-10-06T20:02:07.615Z,70.07
2022-10-06T20:04:34.697Z,70.14
2022-10-06T20:07:01.706Z,70.37
2022-10-06T20:09:31.709Z,69.81
2022-10-06T20:11:59.143Z,70.07
2022-10-06T20:14:26.772Z,70.41
2022-10-06T20:16:55.284Z,71.13
2022-10-06T20:19:23.445Z,70.56
2022-10-06T20:21:50.444Z,70.70
2022-10-06T20:24:25.624Z,70.40
2022-10-06T20:26:53.461Z,69.75
2022-10-06T20:29:23.607Z,69.38
2022-10-06T20:31:56.188Z,69.15
2022-10-06T20:34:25.558Z,69.83
2022-10-06T20:36:55.931Z,70.18
2022-10-06T20:39:42.190Z,70.54
2022-10-06T20:42:14.711Z,70.62
2022-10-06T20:44:43.250Z,70.65
2022-10-06T20:47:11.870Z,69.23
2022-10-06T20:49:38.907Z,68.83
2022-10-06T20:52:06.293Z,69.60
2022-10-06T20:54:35.893Z,69.36
2022-10-06T20:57:04.909Z,68.70
2022-10-06T20:59:32.310Z,68.21
2022-10-06T21:02:00.243Z,68.75
2022-10-06T21:04:30.090Z,68.90
2022-10-06T21:06:57.368Z,68.75
2022-10-06T21:09:24.553Z,68.97
2022-10-06T21:11:51.750Z,68.58
2022-10-06T21:14:18.487Z,68.31
2022-10-06T21:16:46.838Z,68.03
2022-10-06T21:19:15.489Z,69.22
2022-10-06T21:21:44.524Z,69.56
2022-10-06T21:24:11.361Z,70.09
2022-10-06T21:26:38.792Z,70.22
2022-10-06T21:29:05.861Z,70.01
2022-10-06T21:31:33.486Z,69.87
2022-10-06T21:34:01.480Z,70.20
2022-10-06T21:36:31.774Z,70.19
2022-10-06T21:38:59.962Z,70.14
2022-10-06T21:41:29.735Z,70.20
2022-10-06T21:44:00.797Z,70.14
2022-10-06T21:46:35.940Z,69.96
2022-10-06T21:49:05.021Z,70.27
2022-10-06T21:51:31.948Z,70.09
2022-10-06T21:53:59.692Z,70.23
2022-10-06T21:56:27.684Z,70.11
2022-10-06T21:58:55.876Z,70.08
2022-10-06T22:01:31.042Z,70.28
2022-10-06T22:04:00.044Z,70.01
2022-10-06T22:06:28.135Z,70.35
2022-10-06T22:08:55.802Z,70.30
2022-10-06T22:11:27.769Z,69.72
2022-10-06T22:13:59.552Z,69.91
2022-10-06T22:16:28.584Z,70.17
2022-10-06T22:18:55.660Z,70.56
2022-10-06T22:21:27.930Z,70.17
2022-10-06T22:24:03.363Z,70.40
2022-10-06T22:26:31.536Z,70.20
2022-10-06T22:28:58.992Z,69.69
2022-10-06T22:31:27.295Z,69.73
2022-10-06T22:33:58.517Z,69.94
2022-10-06T22:36:26.563Z,70.31
2022-10-06T22:38:53.605Z,70.11
2022-10-06T22:41:20.958Z,69.92
2022-10-06T22:43:47.836Z,70.32
2022-10-06T22:46:14.700Z,69.99
2022-10-06T22:48:41.804Z,69.31
2022-10-06T22:51:08.722Z,69.45
2022-10-06T22:53:35.691Z,69.44
2022-10-06T22:56:03.889Z,68.56
2022-10-06T22:58:30.801Z,69.16
2022-10-06T23:00:57.583Z,69.70
2022-10-06T23:03:24.725Z,69.56
2022-10-06T23:05:59.623Z,69.39
2022-10-06T23:08:30.168Z,69.85
2022-10-06T23:11:15.868Z,68.70
2022-10-06T23:13:43.490Z,69.31
2022-10-06T23:16:13.125Z,68.99
2022-10-06T23:18:40.922Z,68.54
2022-10-06T23:21:10.606Z,68.53
2022-10-06T23:23:37.708Z,68.66
2022-10-06T23:26:12.104Z,67.97
2022-10-06T23:28:39.228Z,68.11
2022-10-06T23:31:07.580Z,67.71
2022-10-06T23:33:34.421Z,67.95
2022-10-06T23:36:09.389Z,68.14
2022-10-06T23:38:37.141Z,68.12
2022-10-06T23:41:04.813Z,68.30
2022-10-06T23:43:31.581Z,68.55
2022-10-06T23:45:58.600Z,68.73
2022-10-06T23:48:25.308Z,68.54
2022-10-06T23:51:02.589Z,68.40
2022-10-06T23:53:30.189Z,68.96
2022-10-06T23:55:57.399Z,68.47
2022-10-06T23:58:24.537Z,68.80
